Time;durP1;ratioP1;P1;durP2;ratioP2;P2;SDS_P1;SDS_P2;PMS_P1;PMS_P2;Temp;Humidity;BMP_temperature;BMP_pressure;BME280_temperature;BME280_humidity;BME280_pressure;Samples;Min_cycle;Max_cycle;Signal;HPM_P1;HPM_P2
2023/08/04 00:00:46;;;;;;;5.33;1.00;;;;;;;17.37;100.00;99961.34;5075666;28;20471;-71
2023/08/04 00:03:15;;;;;;;5.30;1.17;;;;;;;17.38;100.00;99964.88;5075642;28;20499;-71
2023/08/04 00:05:41;;;;;;;6.27;1.30;;;;;;;17.39;100.00;99974.66;5075670;28;20984;-71
2023/08/04 00:08:08;;;;;;;7.00;1.37;;;;;;;17.43;100.00;99972.00;5075831;28;20483;-71
2023/08/04 00:10:35;;;;;;;5.00;1.20;;;;;;;17.43;100.00;99977.47;5075184;28;20814;-71
2023/08/04 00:13:02;;;;;;;4.87;1.10;;;;;;;17.46;100.00;99984.97;5075107;28;21012;-71
2023/08/04 00:15:29;;;;;;;6.83;1.23;;;;;;;17.49;100.00;99987.00;5075380;28;20497;-71
2023/08/04 00:17:56;;;;;;;5.07;1.00;;;;;;;17.49;100.00;99996.00;5075086;28;20438;-71
2023/08/04 00:20:24;;;;;;;5.10;1.10;;;;;;;17.54;100.00;100001.19;5075165;28;20536;-71
2023/08/04 00:22:51;;;;;;;5.10;1.20;;;;;;;17.55;100.00;100000.03;5075287;28;20465;-71
2023/08/04 00:25:17;;;;;;;5.10;1.20;;;;;;;17.56;100.00;100009.03;5075044;28;20465;-71
2023/08/04 00:27:44;;;;;;;5.77;1.20;;;;;;;17.57;100.00;100013.34;5075093;28;20576;-71
2023/08/04 00:30:12;;;;;;;5.73;1.33;;;;;;;17.58;100.00;100010.25;5075130;28;20514;-71
2023/08/04 00:32:38;;;;;;;5.17;1.17;;;;;;;17.62;100.00;100013.06;5074902;28;20446;-70
2023/08/04 00:35:05;;;;;;;5.10;1.20;;;;;;;17.65;100.00;100024.06;5074863;28;20552;-71
2023/08/04 00:37:34;;;;;;;5.67;1.67;;;;;;;17.65;100.00;100012.31;5074743;28;20480;-70
2023/08/04 00:40:01;;;;;;;5.40;1.13;;;;;;;17.65;100.00;100026.03;5075230;28;20547;-68
2023/08/04 00:42:28;;;;;;;5.00;1.10;;;;;;;17.68;100.00;100024.53;5074573;28;20519;-70
2023/08/04 00:44:55;;;;;;;5.40;1.57;;;;;;;17.66;100.00;100013.91;5074982;28;20548;-70
2023/08/04 00:47:21;;;;;;;5.30;1.20;;;;;;;17.69;100.00;100018.66;5074907;28;20517;-70
2023/08/04 00:49:48;;;;;;;5.37;1.60;;;;;;;17.69;100.00;100010.44;5074399;28;20953;-70
2023/08/04 00:52:15;;;;;;;5.90;1.30;;;;;;;17.69;100.00;100021.41;5074652;28;20452;-70
2023/08/04 00:54:45;;;;;;;5.13;1.37;;;;;;;17.72;100.00;100025.38;5074714;28;20448;-70
2023/08/04 00:57:11;;;;;;;5.33;1.40;;;;;;;17.71;100.00;100035.56;5074087;28;20464;-70
2023/08/04 00:59:38;;;;;;;7.70;1.80;;;;;;;17.71;100.00;100024.59;5074138;28;20920;-70
2023/08/04 01:02:05;;;;;;;5.63;1.27;;;;;;;17.74;100.00;100032.09;5074394;28;20929;-70
2023/08/04 01:04:31;;;;;;;8.20;1.53;;;;;;;17.70;100.00;100038.63;5074336;28;20437;-70
2023/08/04 01:07:10;;;;;;;5.63;1.40;;;;;;;17.75;100.00;100041.09;5073983;28;20930;-70
2023/08/04 01:09:47;;;;;;;5.20;1.40;;;;;;;17.76;100.00;100035.28;5074165;28;20531;-70
2023/08/04 01:12:19;;;;;;;11.03;1.70;;;;;;;17.77;100.00;100031.38;5074651;28;20449;-70
2023/08/04 01:14:50;;;;;;;5.87;1.40;;;;;;;17.84;100.00;100033.44;5074752;28;20460;-70
2023/08/04 01:17:24;;;;;;;6.90;1.70;;;;;;;17.79;100.00;100031.78;5074533;28;20497;-70
2023/08/04 01:19:51;;;;;;;6.07;1.73;;;;;;;17.80;100.00;100033.41;5074158;28;20501;-70
2023/08/04 01:22:19;;;;;;;6.30;1.70;;;;;;;17.81;100.00;100045.94;5074114;28;20473;-70
2023/08/04 01:24:46;;;;;;;5.77;1.73;;;;;;;17.80;100.00;100049.06;5073556;28;20929;-70
2023/08/04 01:27:18;;;;;;;5.10;1.30;;;;;;;17.82;100.00;100046.72;5073720;28;20572;-70
2023/08/04 01:29:46;;;;;;;6.03;1.73;;;;;;;17.81;100.00;100054.16;5074000;28;20460;-70
2023/08/04 01:32:13;;;;;;;5.47;1.67;;;;;;;17.86;100.00;100050.31;5074299;28;20797;-70
2023/08/04 01:34:44;;;;;;;5.13;1.37;;;;;;;17.87;100.00;100052.69;5073772;28;20438;-70
2023/08/04 01:37:11;;;;;;;7.03;2.00;;;;;;;17.87;100.00;100069.13;5073901;28;20420;-70
2023/08/04 01:39:39;;;;;;;6.17;1.70;;;;;;;17.85;100.00;100074.19;5073488;28;20890;-70
2023/08/04 01:42:06;;;;;;;6.17;1.70;;;;;;;17.86;100.00;100086.75;5074113;28;20484;-70
2023/08/04 01:44:33;;;;;;;7.43;2.40;;;;;;;17.87;100.00;100087.53;5074235;28;20527;-70
2023/08/04 01:47:00;;;;;;;9.17;2.20;;;;;;;17.87;100.00;100098.47;5073596;28;20788;-70
2023/08/04 01:49:26;;;;;;;5.70;1.60;;;;;;;17.86;100.00;100113.34;5073358;28;20441;-70
2023/08/04 01:51:53;;;;;;;5.13;1.40;;;;;;;17.85;100.00;100118.03;5073930;28;20536;-70
2023/08/04 01:54:19;;;;;;;8.10;1.57;;;;;;;17.86;100.00;100130.56;5074127;28;20443;-70
2023/08/04 01:56:48;;;;;;;6.20;1.70;;;;;;;17.88;100.00;100139.25;5073427;28;20549;-70
2023/08/04 01:59:15;;;;;;;5.07;1.23;;;;;;;17.86;100.00;100147.03;5073630;28;20472;-70
2023/08/04 02:01:42;;;;;;;13.20;1.90;;;;;;;17.85;100.00;100142.69;5073579;28;20862;-70
2023/08/04 02:04:08;;;;;;;5.50;1.90;;;;;;;17.86;100.00;100151.72;5073521;28;20437;-71
2023/08/04 02:06:35;;;;;;;5.10;1.50;;;;;;;17.86;100.00;100155.25;5073803;28;20799;-70
2023/08/04 02:09:03;;;;;;;7.63;1.57;;;;;;;17.89;100.00;100153.75;5072971;28;20572;-70
2023/08/04 02:11:29;;;;;;;7.57;2.00;;;;;;;17.90;100.00;100158.84;5073247;28;20820;-70
2023/08/04 02:13:58;;;;;;;8.83;2.90;;;;;;;17.93;100.00;100167.47;5073760;28;20448;-70
2023/08/04 02:16:24;;;;;;;6.70;1.80;;;;;;;17.92;100.00;100165.91;5073342;28;20488;-70
2023/08/04 02:18:51;;;;;;;5.83;1.63;;;;;;;17.81;100.00;100174.72;5073370;28;20433;-70
2023/08/04 02:21:18;;;;;;;14.37;1.97;;;;;;;17.85;100.00;100181.06;5073382;28;20532;-70
2023/08/04 02:23:44;;;;;;;5.63;1.97;;;;;;;17.88;100.00;100188.56;5073608;28;20473;-70
2023/08/04 02:26:11;;;;;;;6.10;1.67;;;;;;;17.87;100.00;100192.44;5073302;28;20540;-70
2023/08/04 02:28:38;;;;;;;9.17;2.47;;;;;;;17.88;100.00;100194.06;5073221;28;20506;-70
2023/08/04 02:31:06;;;;;;;6.23;1.50;;;;;;;17.88;100.00;100193.22;5073329;28;20849;-70
2023/08/04 02:33:32;;;;;;;6.07;1.80;;;;;;;17.90;100.00;100194.47;5073312;28;20440;-70
2023/08/04 02:36:03;;;;;;;6.93;2.00;;;;;;;17.88;100.00;100194.06;5055334;28;20461;-70
2023/08/04 02:38:30;;;;;;;6.17;2.27;;;;;;;17.85;100.00;100194.75;5073082;28;20444;-70
2023/08/04 02:41:02;;;;;;;8.53;3.00;;;;;;;17.87;100.00;100197.91;5073216;28;20438;-71
2023/08/04 02:43:29;;;;;;;7.93;2.60;;;;;;;17.89;100.00;100195.63;5073293;28;20430;-70
2023/08/04 02:45:55;;;;;;;6.00;1.90;;;;;;;17.87;100.00;100194.38;5072923;28;20992;-70
2023/08/04 02:48:23;;;;;;;8.33;2.30;;;;;;;17.93;100.00;100194.88;5073092;28;20485;-70
2023/08/04 02:50:58;;;;;;;5.50;1.60;;;;;;;17.88;100.00;100196.78;5072729;28;20524;-70
2023/08/04 02:53:25;;;;;;;5.00;1.37;;;;;;;17.85;100.00;100202.19;5073143;28;20425;-70
2023/08/04 02:55:51;;;;;;;7.67;2.10;;;;;;;17.88;100.00;100196.78;5072821;28;20509;-70
2023/08/04 02:58:18;;;;;;;8.20;2.10;;;;;;;17.96;100.00;100194.19;5072996;28;20487;-70
2023/08/04 03:00:45;;;;;;;6.90;2.30;;;;;;;17.90;100.00;100196.41;5072687;28;20895;-70
2023/08/04 03:03:11;;;;;;;6.70;2.10;;;;;;;17.85;100.00;100193.97;5072686;28;20876;-70
2023/08/04 03:05:39;;;;;;;6.47;2.30;;;;;;;17.82;100.00;100192.72;5072512;28;20500;-70
2023/08/04 03:08:06;;;;;;;6.10;1.90;;;;;;;17.82;100.00;100195.47;5072550;28;21066;-70
2023/08/04 03:10:32;;;;;;;12.37;2.90;;;;;;;17.86;100.00;100206.50;5072518;28;20937;-71
2023/08/04 03:12:59;;;;;;;9.53;3.03;;;;;;;17.84;100.00;100209.63;5072836;28;20529;-70
2023/08/04 03:15:26;;;;;;;5.80;1.90;;;;;;;17.82;100.00;100209.16;5072801;28;20551;-70
2023/08/04 03:17:52;;;;;;;7.53;2.30;;;;;;;17.84;100.00;100212.38;5072817;28;20512;-70
2023/08/04 03:20:19;;;;;;;7.10;2.40;;;;;;;17.82;100.00;100216.59;5075015;28;20464;-70
2023/08/04 03:22:47;;;;;;;7.07;2.20;;;;;;;17.82;100.00;100211.13;5076993;28;20525;-70
2023/08/04 03:25:13;;;;;;;14.20;3.10;;;;;;;17.81;100.00;100218.56;5075893;28;20988;-70
2023/08/04 03:27:40;;;;;;;9.27;2.20;;;;;;;17.79;100.00;100211.81;5076530;28;20592;-70
2023/08/04 03:30:08;;;;;;;6.83;2.53;;;;;;;17.75;100.00;100213.69;5076284;28;20445;-70
2023/08/04 03:32:35;;;;;;;6.70;2.13;;;;;;;17.77;100.00;100227.84;5076476;28;20519;-70
2023/08/04 03:35:01;;;;;;;7.93;2.00;;;;;;;17.70;100.00;100231.19;5075730;28;20976;-70
2023/08/04 03:37:28;;;;;;;6.50;1.90;;;;;;;17.70;100.00;100220.22;5076247;28;20859;-70
2023/08/04 03:39:56;;;;;;;7.67;2.20;;;;;;;17.72;100.00;100228.09;5076422;28;20511;-70
2023/08/04 03:42:23;;;;;;;5.83;2.07;;;;;;;17.64;100.00;100235.34;5075817;28;20532;-70
2023/08/04 03:44:49;;;;;;;6.30;2.00;;;;;;;17.64;100.00;100233.41;5075900;28;20508;-70
2023/08/04 03:47:16;;;;;;;6.10;2.23;;;;;;;17.58;100.00;100240.31;5075942;28;20528;-70
2023/08/04 03:49:42;;;;;;;16.27;3.00;;;;;;;17.59;100.00;100250.13;5076072;28;20485;-70
2023/08/04 03:52:09;;;;;;;6.77;2.57;;;;;;;17.61;100.00;100252.50;5075828;28;20441;-70
2023/08/04 03:54:36;;;;;;;7.43;2.70;;;;;;;17.61;100.00;100255.22;5075737;28;20469;-70
2023/08/04 03:57:04;;;;;;;6.40;2.30;;;;;;;17.61;100.00;100258.75;5075399;28;20880;-70
2023/08/04 03:59:31;;;;;;;10.13;2.30;;;;;;;17.60;100.00;100254.44;5075752;28;20880;-70
2023/08/04 04:01:58;;;;;;;6.80;2.53;;;;;;;17.64;100.00;100254.53;5075884;28;20495;-70
2023/08/04 04:04:24;;;;;;;12.00;2.57;;;;;;;17.63;100.00;100251.00;5075963;28;20503;-70
2023/08/04 04:06:51;;;;;;;13.60;2.83;;;;;;;17.61;100.00;100252.50;5075817;28;20496;-70
2023/08/04 04:09:17;;;;;;;7.13;2.57;;;;;;;17.59;100.00;100258.34;5075371;28;20477;-70
2023/08/04 04:11:44;;;;;;;18.73;2.77;;;;;;;17.57;100.00;100262.56;5075558;28;20420;-70
2023/08/04 04:14:12;;;;;;;14.63;2.83;;;;;;;17.50;100.00;100260.47;5075776;28;20433;-70
2023/08/04 04:16:39;;;;;;;9.90;2.20;;;;;;;17.43;100.00;100260.31;5075349;28;20457;-70
2023/08/04 04:19:05;;;;;;;8.93;2.60;;;;;;;17.39;100.00;100256.69;5075048;28;20520;-70
2023/08/04 04:21:32;;;;;;;7.10;2.40;;;;;;;17.35;100.00;100262.09;5075270;28;20437;-69
2023/08/04 04:23:59;;;;;;;6.23;2.07;;;;;;;17.29;100.00;100262.69;5075227;28;20805;-69
2023/08/04 04:26:25;;;;;;;7.17;2.30;;;;;;;17.30;100.00;100267.03;5075125;28;20519;-69
2023/08/04 04:28:52;;;;;;;7.83;2.50;;;;;;;17.26;100.00;100269.66;5075382;28;20532;-70
2023/08/04 04:31:20;;;;;;;6.63;2.20;;;;;;;17.24;100.00;100263.75;5074685;28;20925;-70
2023/08/04 04:33:46;;;;;;;10.90;3.30;;;;;;;17.26;100.00;100274.34;5074712;28;20437;-70
2023/08/04 04:36:13;;;;;;;5.90;1.90;;;;;;;17.24;100.00;100277.44;5075263;28;20489;-70
2023/08/04 04:38:40;;;;;;;6.80;2.43;;;;;;;17.30;100.00;100280.72;5075578;28;20516;-70
2023/08/04 04:41:06;;;;;;;9.17;3.03;;;;;;;17.36;100.00;100293.00;5074552;28;20957;-70
2023/08/04 04:43:33;;;;;;;6.73;2.40;;;;;;;17.38;100.00;100290.69;5074774;28;20581;-70
2023/08/04 04:46:00;;;;;;;7.10;2.70;;;;;;;17.45;100.00;100303.78;5074388;28;20895;-70
2023/08/04 04:48:28;;;;;;;6.93;2.50;;;;;;;17.46;100.00;100302.63;5075156;28;20491;-69
2023/08/04 04:50:55;;;;;;;9.03;2.33;;;;;;;17.45;100.00;100307.31;5074707;28;20438;-69
2023/08/04 04:53:22;;;;;;;6.60;1.80;;;;;;;17.48;100.00;100314.00;5075008;28;20872;-70
2023/08/04 04:55:49;;;;;;;7.53;2.73;;;;;;;17.45;100.00;100312.00;5074266;28;20456;-70
2023/08/04 04:58:15;;;;;;;8.90;2.90;;;;;;;17.43;100.00;100319.75;5074886;28;20516;-70
2023/08/04 05:00:42;;;;;;;10.37;2.37;;;;;;;17.46;100.00;100327.28;5074586;28;20444;-69
2023/08/04 05:03:10;;;;;;;7.40;2.60;;;;;;;17.51;100.00;100325.06;5074466;28;20438;-69
2023/08/04 05:05:38;;;;;;;6.97;1.97;;;;;;;17.47;100.00;100321.44;5074307;28;20461;-69
2023/08/04 05:08:05;;;;;;;6.60;2.10;;;;;;;17.52;100.00;100336.78;5074618;28;20772;-69
2023/08/04 05:10:32;;;;;;;6.30;1.70;;;;;;;17.56;100.00;100340.41;5074126;28;20453;-70
2023/08/04 05:12:59;;;;;;;7.07;2.23;;;;;;;17.61;100.00;100340.94;5074288;28;20873;-70
2023/08/04 05:15:25;;;;;;;8.87;2.10;;;;;;;17.54;100.00;100342.72;5074443;28;20489;-70
2023/08/04 05:17:52;;;;;;;6.37;2.33;;;;;;;17.58;100.00;100357.31;5073911;28;20845;-71
2023/08/04 05:20:19;;;;;;;6.40;1.97;;;;;;;17.59;100.00;100353.41;5074445;28;20464;-70
2023/08/04 05:22:47;;;;;;;7.70;2.13;;;;;;;17.60;100.00;100352.25;5074607;28;20437;-69
2023/08/04 05:25:13;;;;;;;6.07;1.97;;;;;;;17.60;100.00;100350.31;5074641;28;20461;-69
2023/08/04 05:27:41;;;;;;;7.83;2.10;;;;;;;17.63;100.00;100351.56;5073664;28;20831;-69
2023/08/04 05:30:09;;;;;;;8.80;2.40;;;;;;;17.64;100.00;100359.41;5073875;28;20520;-69
2023/08/04 05:32:35;;;;;;;10.03;2.43;;;;;;;17.59;100.00;100367.09;5073845;28;20472;-69
2023/08/04 05:35:02;;;;;;;12.27;2.30;;;;;;;17.55;100.00;100367.00;5073829;28;20536;-70
2023/08/04 05:37:29;;;;;;;6.57;2.33;;;;;;;17.51;100.00;100366.13;5074056;28;20457;-70
2023/08/04 05:39:57;;;;;;;14.40;2.00;;;;;;;17.54;100.00;100370.91;5074050;28;20512;-70
2023/08/04 05:42:24;;;;;;;6.23;2.10;;;;;;;17.57;100.00;100364.72;5073342;28;20434;-69
2023/08/04 05:44:51;;;;;;;6.33;2.03;;;;;;;17.58;100.00;100358.09;5073679;28;20833;-69
2023/08/04 05:47:17;;;;;;;5.97;2.00;;;;;;;17.61;100.00;100367.53;5073453;28;20445;-70
2023/08/04 05:49:45;;;;;;;6.50;2.23;;;;;;;17.68;100.00;100369.66;5073810;28;20481;-69
2023/08/04 05:52:12;;;;;;;9.00;1.93;;;;;;;17.67;100.00;100368.09;5073641;28;20452;-69
2023/08/04 05:54:38;;;;;;;6.83;2.43;;;;;;;17.74;100.00;100379.22;5073904;28;20472;-70
2023/08/04 05:57:07;;;;;;;8.60;2.43;;;;;;;17.84;100.00;100392.38;5073577;28;20465;-69
2023/08/04 05:59:33;;;;;;;7.20;2.33;;;;;;;17.89;100.00;100392.94;5073576;28;20512;-69
2023/08/04 06:02:01;;;;;;;9.40;2.00;;;;;;;17.95;100.00;100396.19;5073425;28;20969;-70
2023/08/04 06:04:27;;;;;;;5.60;1.73;;;;;;;17.96;100.00;100407.94;5073275;28;20532;-71
2023/08/04 06:06:54;;;;;;;6.70;1.70;;;;;;;18.02;100.00;100406.53;5073462;28;20434;-71
2023/08/04 06:09:21;;;;;;;7.67;2.53;;;;;;;17.99;100.00;100408.03;5072910;28;20578;-70
2023/08/04 06:11:47;;;;;;;7.90;2.17;;;;;;;18.04;100.00;100409.72;5073177;28;20467;-70
2023/08/04 06:14:15;;;;;;;6.30;1.87;;;;;;;18.10;100.00;100413.75;5073163;28;20870;-69
2023/08/04 06:16:42;;;;;;;6.83;2.07;;;;;;;18.13;100.00;100419.34;5073330;28;20471;-69
2023/08/04 06:19:08;;;;;;;5.97;2.13;;;;;;;18.15;100.00;100422.53;5073064;28;20814;-68
2023/08/04 06:21:36;;;;;;;8.80;2.37;;;;;;;18.16;100.00;100428.81;5073677;28;20537;-69
2023/08/04 06:24:03;;;;;;;6.53;2.10;;;;;;;18.18;100.00;100428.44;5073267;28;20442;-69
2023/08/04 06:26:29;;;;;;;7.17;2.50;;;;;;;18.23;100.00;100428.16;5073229;28;20468;-68
2023/08/04 06:28:56;;;;;;;8.03;2.27;;;;;;;18.25;99.89;100426.66;5073182;28;20574;-69
2023/08/04 06:31:24;;;;;;;10.10;2.90;;;;;;;18.27;100.00;100435.31;5073472;28;20433;-69
2023/08/04 06:33:51;;;;;;;10.23;2.23;;;;;;;18.31;100.00;100432.66;5073545;28;20487;-68
2023/08/04 06:36:18;;;;;;;6.50;1.80;;;;;;;18.35;100.00;100431.59;5072903;28;20540;-68
2023/08/04 06:38:44;;;;;;;13.10;1.80;;;;;;;18.45;100.00;100438.47;5073139;28;20528;-68
2023/08/04 06:41:11;;;;;;;7.63;1.73;;;;;;;18.54;100.00;100438.25;5073093;28;20785;-68
2023/08/04 06:43:37;;;;;;;8.73;1.80;;;;;;;18.58;100.00;100444.63;5073126;28;20469;-68
2023/08/04 06:46:04;;;;;;;7.67;1.90;;;;;;;18.55;97.58;100443.41;5073491;28;20489;-68
2023/08/04 06:48:32;;;;;;;11.23;2.13;;;;;;;18.55;97.94;100450.81;5073065;28;20449;-68
2023/08/04 06:50:59;;;;;;;7.93;2.63;;;;;;;18.63;97.87;100460.81;5072936;28;20445;-68
2023/08/04 06:53:25;;;;;;;6.90;1.80;;;;;;;18.59;96.61;100468.97;5072679;28;20528;-68
2023/08/04 06:55:52;;;;;;;7.80;2.40;;;;;;;18.64;96.20;100468.69;5076305;28;20540;-69
2023/08/04 06:58:18;;;;;;;9.90;2.10;;;;;;;18.56;96.46;100477.91;5077519;28;20468;-70
2023/08/04 07:00:45;;;;;;;7.00;2.40;;;;;;;18.59;96.05;100482.69;5076797;28;20429;-70
2023/08/04 07:03:12;;;;;;;6.10;1.63;;;;;;;18.47;96.43;100476.53;5076759;28;20441;-70
2023/08/04 07:05:40;;;;;;;6.80;1.67;;;;;;;18.62;96.43;100481.16;5077088;28;20984;-71
2023/08/04 07:08:07;;;;;;;6.20;2.10;;;;;;;18.73;96.06;100487.72;5077486;28;20805;-71
2023/08/04 07:10:35;;;;;;;8.07;2.70;;;;;;;18.76;94.87;100484.25;5076636;28;20899;-70
2023/08/04 07:13:01;;;;;;;7.03;1.63;;;;;;;18.84;93.30;100496.97;5076908;28;20964;-71
2023/08/04 07:15:28;;;;;;;6.40;2.07;;;;;;;18.90;91.50;100492.81;5076776;28;20464;-70
2023/08/04 07:17:54;;;;;;;6.20;1.60;;;;;;;18.99;91.72;100491.78;5076562;28;20996;-71
2023/08/04 07:20:22;;;;;;;6.33;1.97;;;;;;;19.03;90.92;100489.91;5076851;28;20533;-71
2023/08/04 07:22:50;;;;;;;5.63;1.57;;;;;;;19.02;92.37;100496.56;5076569;28;20807;-71
2023/08/04 07:25:16;;;;;;;7.33;1.57;;;;;;;19.18;94.07;100505.53;5076549;28;20521;-70
2023/08/04 07:27:43;;;;;;;4.90;1.23;;;;;;;19.38;92.02;100498.88;5076291;28;20528;-71
2023/08/04 07:30:10;;;;;;;7.07;1.90;;;;;;;19.48;90.09;100502.19;5076374;28;20568;-71
2023/08/04 07:32:37;;;;;;;5.47;1.87;;;;;;;19.56;88.98;100512.16;5076044;28;20499;-70
2023/08/04 07:35:04;;;;;;;6.60;2.10;;;;;;;19.55;88.09;100514.13;5076668;28;20547;-71
2023/08/04 07:37:31;;;;;;;5.90;1.77;;;;;;;19.54;88.57;100509.00;5076194;28;20449;-71
2023/08/04 07:39:59;;;;;;;7.00;1.90;;;;;;;19.52;88.97;100514.84;5076287;28;20437;-71
2023/08/04 07:42:26;;;;;;;5.97;1.50;;;;;;;19.50;88.57;100516.38;5075896;28;21024;-71
2023/08/04 07:44:52;;;;;;;12.53;2.20;;;;;;;19.52;89.33;100522.28;5075875;28;20468;-71
2023/08/04 07:47:19;;;;;;;5.27;1.30;;;;;;;19.63;89.49;100517.81;5076029;28;20441;-70
2023/08/04 07:49:46;;;;;;;6.90;2.10;;;;;;;19.74;87.45;100527.06;5076377;28;20542;-69
2023/08/04 07:52:12;;;;;;;4.90;1.20;;;;;;;19.90;87.75;100522.25;5075812;28;20473;-71
2023/08/04 07:54:39;;;;;;;6.37;1.50;;;;;;;19.98;86.86;100525.13;5075916;28;20437;-68
2023/08/04 07:57:07;;;;;;;8.13;1.90;;;;;;;19.95;85.98;100526.66;5075829;28;20437;-68
2023/08/04 07:59:34;;;;;;;5.80;1.67;;;;;;;19.97;86.23;100529.84;5075433;28;21025;-69
2023/08/04 08:02:00;;;;;;;8.57;2.27;;;;;;;20.03;85.94;100535.81;5075675;28;20441;-69
2023/08/04 08:04:27;;;;;;;5.83;1.90;;;;;;;20.14;85.55;100537.63;5075552;28;20461;-69
2023/08/04 08:06:54;;;;;;;6.93;1.97;;;;;;;20.23;83.26;100526.38;5075195;28;20512;-69
2023/08/04 08:09:20;;;;;;;6.27;1.90;;;;;;;20.22;81.86;100545.97;5075296;28;20508;-69
2023/08/04 08:11:47;;;;;;;9.00;1.47;;;;;;;20.32;82.32;100535.16;5075681;28;20932;-69
2023/08/04 08:14:16;;;;;;;6.30;1.60;;;;;;;20.39;81.70;100546.25;5075942;28;20449;-69
2023/08/04 08:16:43;;;;;;;9.53;2.00;;;;;;;20.30;81.60;100542.97;5075290;28;20469;-69
2023/08/04 08:19:09;;;;;;;8.47;1.60;;;;;;;20.13;83.28;100555.25;5075374;28;20498;-69
2023/08/04 08:21:36;;;;;;;6.70;1.53;;;;;;;20.03;84.08;100552.31;5075027;28;20517;-69
2023/08/04 08:24:03;;;;;;;5.37;1.50;;;;;;;19.93;84.19;100561.19;5075627;28;20437;-69
2023/08/04 08:26:30;;;;;;;7.67;1.60;;;;;;;19.81;86.10;100562.13;5074777;28;20895;-69
2023/08/04 08:28:56;;;;;;;6.17;2.10;;;;;;;19.88;85.92;100565.03;5075061;28;20544;-69
2023/08/04 08:31:24;;;;;;;6.20;1.70;;;;;;;19.98;84.03;100561.69;5075085;28;20481;-69
2023/08/04 08:33:51;;;;;;;5.30;1.30;;;;;;;20.04;84.21;100562.94;5074790;28;20951;-69
2023/08/04 08:36:19;;;;;;;5.73;1.73;;;;;;;20.17;81.07;100566.31;5074974;28;20500;-69
2023/08/04 08:38:45;;;;;;;5.40;1.40;;;;;;;20.21;78.82;100572.69;5074642;28;20494;-69
2023/08/04 08:41:13;;;;;;;6.30;1.40;;;;;;;20.12;79.40;100580.38;5074909;28;20524;-69
2023/08/04 08:43:40;;;;;;;5.80;1.37;;;;;;;20.07;79.75;100572.44;5075212;28;20468;-69
2023/08/04 08:46:08;;;;;;;6.20;1.93;;;;;;;20.14;81.67;100578.03;5074838;28;20540;-69
2023/08/04 08:48:38;;;;;;;5.67;1.63;;;;;;;20.33;80.21;100575.25;5074478;28;20481;-69
2023/08/04 08:51:12;;;;;;;5.10;1.40;;;;;;;20.54;78.61;100580.34;5074968;28;20501;-69
2023/08/04 08:53:39;;;;;;;5.50;1.33;;;;;;;20.59;79.95;100582.78;5074663;28;20497;-68
2023/08/04 08:56:09;;;;;;;5.60;1.60;;;;;;;20.68;77.13;100579.78;5074638;28;20536;-69
2023/08/04 08:58:36;;;;;;;5.20;1.30;;;;;;;20.82;77.68;100579.19;5074741;28;20444;-69
2023/08/04 09:01:03;;;;;;;5.03;1.50;;;;;;;20.89;78.35;100580.09;5074513;28;20528;-69
2023/08/04 09:03:30;;;;;;;5.23;1.23;;;;;;;20.88;78.43;100584.00;5074512;28;20462;-69
2023/08/04 09:05:58;;;;;;;4.93;1.40;;;;;;;20.79;77.97;100591.75;5074512;28;20541;-69
2023/08/04 09:08:25;;;;;;;5.80;1.50;;;;;;;20.78;79.56;100581.09;5074321;28;20444;-69
2023/08/04 09:10:51;;;;;;;9.07;1.90;;;;;;;20.88;82.04;100584.00;5073808;28;21059;-69
2023/08/04 09:13:19;;;;;;;7.40;1.97;;;;;;;21.09;80.88;100588.25;5074677;28;20466;-69
2023/08/04 09:15:50;;;;;;;4.97;1.20;;;;;;;21.22;79.59;100597.88;5073851;28;20536;-69
2023/08/04 09:18:24;;;;;;;5.20;1.63;;;;;;;21.16;78.42;100591.09;5073480;28;20441;-69
2023/08/04 09:21:00;;;;;;;7.60;1.57;;;;;;;21.18;73.95;100588.75;5074169;28;20464;-69
2023/08/04 09:23:28;;;;;;;4.80;1.10;;;;;;;21.16;73.20;100599.34;5073806;28;20425;-69
2023/08/04 09:25:55;;;;;;;5.80;1.80;;;;;;;21.22;74.43;100608.09;5073992;28;20462;-69
2023/08/04 09:28:21;;;;;;;5.17;1.23;;;;;;;21.03;75.76;100606.25;5074063;28;20448;-69
2023/08/04 09:31:05;;;;;;;6.27;1.37;;;;;;;21.23;75.61;100604.19;5073582;28;20848;-69
2023/08/04 09:33:32;;;;;;;6.30;1.50;;;;;;;21.38;75.93;100606.78;5073978;28;20428;-69
2023/08/04 09:36:05;;;;;;;5.10;1.23;;;;;;;21.47;76.13;100616.72;5073521;28;20458;-69
2023/08/04 09:38:32;;;;;;;5.33;1.40;;;;;;;21.43;73.75;100619.44;5073571;28;20525;-69
2023/08/04 09:41:02;;;;;;;5.87;1.30;;;;;;;21.44;73.14;100618.28;5073788;28;20517;-69
2023/08/04 09:43:29;;;;;;;4.70;1.00;;;;;;;21.37;73.35;100618.16;5073831;28;20504;-69
2023/08/04 09:45:58;;;;;;;5.50;1.40;;;;;;;21.36;74.32;100622.88;5073673;28;20968;-69
2023/08/04 09:48:28;;;;;;;8.43;1.63;;;;;;;21.41;75.51;100627.28;5073406;28;20473;-69
2023/08/04 09:51:10;;;;;;;7.23;1.40;;;;;;;21.50;74.81;100632.50;5073606;28;20487;-69
2023/08/04 09:53:42;;;;;;;6.17;1.40;;;;;;;21.38;75.55;100628.84;5073342;28;20925;-69
2023/08/04 09:56:10;;;;;;;7.83;1.30;;;;;;;21.37;76.66;100631.94;5073615;28;20457;-69
2023/08/04 09:58:37;;;;;;;5.90;1.83;;;;;;;21.29;79.19;100631.00;5073589;28;20507;-69
2023/08/04 10:01:04;;;;;;;5.67;1.53;;;;;;;21.29;77.93;100632.97;5073824;28;20473;-69
2023/08/04 10:03:31;;;;;;;6.10;1.60;;;;;;;21.30;77.08;100627.13;5073577;28;20528;-69
2023/08/04 10:06:00;;;;;;;5.10;1.67;;;;;;;21.28;78.52;100632.19;5073621;28;20540;-69
2023/08/04 10:08:30;;;;;;;4.77;1.43;;;;;;;21.40;78.61;100625.69;5073504;28;20484;-69
2023/08/04 10:10:58;;;;;;;5.83;1.60;;;;;;;21.57;78.30;100618.84;5073108;28;20568;-69
2023/08/04 10:13:25;;;;;;;5.47;1.40;;;;;;;21.72;76.29;100622.53;5073487;28;20443;-69
2023/08/04 10:15:53;;;;;;;7.17;1.70;;;;;;;21.90;75.39;100626.31;5073100;28;20488;-69
2023/08/04 10:18:19;;;;;;;5.77;1.43;;;;;;;21.98;71.19;100632.69;5073455;28;20442;-69
2023/08/04 10:20:46;;;;;;;6.03;1.40;;;;;;;21.86;70.97;100630.97;5073444;28;20472;-69
2023/08/04 10:23:13;;;;;;;4.70;1.20;;;;;;;21.62;72.85;100630.31;5073365;28;20433;-69
2023/08/04 10:25:53;;;;;;;5.10;1.30;;;;;;;21.42;73.73;100640.69;5073291;28;20817;-69
2023/08/04 10:28:20;;;;;;;5.57;1.73;;;;;;;21.13;75.86;100644.19;5074088;28;20421;-69
2023/08/04 10:30:47;;;;;;;5.43;1.27;;;;;;;20.77;79.85;100651.91;5077418;28;20506;-69
2023/08/04 10:33:13;;;;;;;4.93;1.53;;;;;;;20.39;83.18;100653.56;5077107;28;20444;-69
2023/08/04 10:36:05;;;;;;;7.00;1.37;;;;;;;19.98;86.93;100662.63;5077359;28;20836;-69
2023/08/04 10:38:44;;;;;;;4.87;1.37;;;;;;;19.67;90.99;100653.38;5077058;28;20770;-69
2023/08/04 10:41:12;;;;;;;6.87;1.83;;;;;;;19.49;93.02;100654.91;5077624;28;20424;-69
2023/08/04 10:43:40;;;;;;;5.80;1.77;;;;;;;19.40;95.61;100655.91;5077240;28;20784;-69
2023/08/04 10:46:11;;;;;;;7.27;1.30;;;;;;;19.44;98.16;100646.94;5076779;28;21043;-69
2023/08/04 10:48:40;;;;;;;10.20;2.80;;;;;;;19.47;99.03;100643.47;5077096;28;20437;-69
2023/08/04 10:51:08;;;;;;;5.60;1.80;;;;;;;19.62;99.81;100642.66;5076593;28;21006;-69
2023/08/04 10:53:35;;;;;;;6.07;1.80;;;;;;;19.68;98.85;100643.94;5076780;28;20516;-69
2023/08/04 10:56:05;;;;;;;7.90;1.93;;;;;;;19.74;98.48;100642.50;5056724;28;20462;-69
2023/08/04 10:58:33;;;;;;;6.57;1.83;;;;;;;19.82;93.84;100638.75;5056708;28;20487;-69
2023/08/04 11:01:00;;;;;;;9.17;1.93;;;;;;;20.01;92.71;100637.13;5045129;28;20438;-71
2023/08/04 11:03:28;;;;;;;6.07;1.50;;;;;;;20.24;88.18;100632.47;5056462;28;20468;-69
2023/08/04 11:05:56;;;;;;;9.53;1.93;;;;;;;20.53;85.60;100633.00;5056698;28;20462;-69
2023/08/04 11:08:24;;;;;;;6.13;2.03;;;;;;;20.66;86.85;100634.41;5056470;28;20457;-69
2023/08/04 11:10:53;;;;;;;5.47;1.33;;;;;;;20.86;83.08;100624.91;5057704;28;20548;-69
2023/08/04 11:13:21;;;;;;;9.70;1.90;;;;;;;21.09;83.43;100613.81;5056684;28;20521;-69
2023/08/04 11:15:51;;;;;;;8.03;1.70;;;;;;;21.34;82.22;100614.22;5056488;28;20462;-69
2023/08/04 11:18:22;;;;;;;6.27;2.03;;;;;;;21.70;83.27;100616.63;5056652;28;20434;-69
2023/08/04 11:20:49;;;;;;;5.20;1.30;;;;;;;22.06;78.54;100615.84;5056599;28;20419;-69